Airfield :
LOGIN :

Register | Disclaimer

   EN    FR    IT 

 










Legend :    VFR   Marginal VFR   IFR   Intensive IFR   Very Intensive IFR
Visi :
Ceiling :
>= 8 km
>= 3000ft
5 to 8 km
1000 to 3000 ft
1500m to 5 km
500 to 1000 ft
800 to 1500m
200 to 500 ft
< 800m
< 200 ft
Symbols :   Thunderstorms  Fog  Heavy snow  Heavy precipitations  Wind > 20 kt
SIGMETs :     Misc.  Thunderstorms  Icing  Turbulence  Mountain Waves  Volcanic Ashes






- Airport Elevation : 686 ft


LYKV - Ladevci

CURRENT METAR :
  • 222000Z 05002KT CAVOK 00/M00 Q1031 NOSIG

EXPIRED METARs :
  • 221930Z 03002KT CAVOK 01/M00 Q1031 NOSIG
  • 221900Z 13003KT CAVOK 00/00 Q1031 NOSIG
  • 221830Z VRB02KT CAVOK 02/M01 Q1031 NOSIG
  • 221800Z 00000KT CAVOK 02/M02 Q1031 NOSIG
  • 221730Z VRB02KT CAVOK 05/M03 Q1031 NOSIG

TAF TAF LYKV
Valid from the 22 at 18:00 until the 23 at 18:00 UTC


221700Z 2218/2318 26005KT CAVOK TX10/2313Z TNM01/2305Z



MET'MAP, your aeronautical weather chart ! - Copyright ORBIFLY December 2007 - Disclaimer

ORBIFLY MET'MAP TEAM :

Programming & Development : Alexandra Zaïnal
Concept & original design : Baudouin d'Aumeries
Assistance for programming : Marc-Olivier Méhu
Technical & hardware support : Manuel Goepfert

Contact : metmap@orbifly.com




SOURCES & CREDITS :

   NOAA